createdAt,value
2018-07-09T00:00:28.751Z,63.70
2018-07-09T00:01:28.744Z,63.41
2018-07-09T00:02:28.662Z,63.89
2018-07-09T00:03:28.644Z,63.89
2018-07-09T00:04:28.578Z,64.28
2018-07-09T00:05:28.536Z,64.18
2018-07-09T00:06:28.505Z,64.18
2018-07-09T00:07:28.450Z,63.89
2018-07-09T00:08:28.397Z,63.89
2018-07-09T00:09:28.351Z,63.60
2018-07-09T00:10:28.306Z,63.70
2018-07-09T00:11:28.277Z,63.98
2018-07-09T00:12:28.211Z,64.18
2018-07-09T00:13:28.200Z,64.08
2018-07-09T00:14:28.122Z,64.18
2018-07-09T00:15:28.104Z,65.14
2018-07-09T00:16:28.029Z,65.05
2018-07-09T00:17:28.006Z,64.66
2018-07-09T00:18:27.954Z,64.76
2018-07-09T00:19:27.890Z,65.33
2018-07-09T00:20:27.860Z,65.43
2018-07-09T00:21:27.830Z,65.63
2018-07-09T00:22:27.766Z,65.59
2018-07-09T00:23:27.739Z,65.43
2018-07-09T00:24:27.676Z,65.91
2018-07-09T00:25:27.631Z,65.43
2018-07-09T00:26:27.584Z,65.53
2018-07-09T00:27:27.560Z,65.05
2018-07-09T00:28:27.492Z,65.53
2018-07-09T00:29:27.439Z,65.91
2018-07-09T00:30:27.418Z,66.01
2018-07-09T00:31:27.366Z,65.53
2018-07-09T00:32:27.310Z,65.63
2018-07-09T00:33:27.278Z,65.43
2018-07-09T00:34:27.465Z,66.11
2018-07-09T00:35:27.167Z,66.85
2018-07-09T00:36:27.122Z,66.75
2018-07-09T00:37:27.077Z,66.75
2018-07-09T00:38:27.057Z,66.75
2018-07-09T00:39:27.006Z,65.40
2018-07-09T00:40:26.979Z,66.07
2018-07-09T00:41:26.901Z,65.40
2018-07-09T00:42:26.855Z,65.78
2018-07-09T00:43:26.818Z,65.20
2018-07-09T00:44:26.779Z,65.59
2018-07-09T00:45:26.715Z,65.50
2018-07-09T00:46:26.681Z,65.40
2018-07-09T00:47:26.656Z,65.40
2018-07-09T00:48:26.598Z,66.07
2018-07-09T00:49:26.535Z,66.07
2018-07-09T00:50:26.493Z,66.55
2018-07-09T00:51:26.455Z,66.36
2018-07-09T00:52:26.414Z,66.46
2018-07-09T00:53:26.356Z,66.65
2018-07-09T00:54:26.325Z,66.46
2018-07-09T00:55:26.268Z,66.65
2018-07-09T00:56:26.233Z,66.75
2018-07-09T00:57:26.187Z,66.36
2018-07-09T00:58:26.126Z,66.46
2018-07-09T00:59:26.090Z,66.94
2018-07-09T01:00:26.063Z,66.75
2018-07-09T01:01:26.004Z,67.13
2018-07-09T01:02:25.946Z,67.03
2018-07-09T01:03:25.906Z,66.94
2018-07-09T01:04:25.857Z,66.75
2018-07-09T01:05:25.821Z,67.42
2018-07-09T01:06:25.784Z,67.33
2018-07-09T01:07:25.749Z,67.71
2018-07-09T01:08:25.694Z,67.90
2018-07-09T01:09:25.645Z,67.33
2018-07-09T01:10:25.584Z,67.90
2018-07-09T01:11:25.544Z,67.71
2018-07-09T01:12:25.504Z,67.81
2018-07-09T01:13:25.459Z,68.06
2018-07-09T01:14:25.405Z,68.54
2018-07-09T01:15:25.390Z,68.93
2018-07-09T01:16:25.316Z,69.12
2018-07-09T01:17:25.266Z,68.93
2018-07-09T01:18:25.247Z,68.54
2018-07-09T01:19:25.175Z,68.64
2018-07-09T01:20:25.180Z,68.84
2018-07-09T01:21:40.915Z,68.84
2018-07-09T01:22:40.828Z,69.12
2018-07-09T01:23:40.798Z,68.74
2018-07-09T01:24:40.737Z,68.74
2018-07-09T01:25:40.688Z,69.22
2018-07-09T01:26:40.635Z,69.41
2018-07-09T01:27:40.595Z,69.60
2018-07-09T01:28:40.576Z,69.79
2018-07-09T01:29:40.511Z,69.31
2018-07-09T01:30:40.485Z,68.74
2018-07-09T01:31:40.404Z,68.54
2018-07-09T01:32:40.377Z,67.77
2018-07-09T01:33:40.323Z,67.77
2018-07-09T01:34:40.291Z,68.44
2018-07-09T01:35:40.253Z,67.97
2018-07-09T01:36:40.184Z,67.39
2018-07-09T01:37:40.165Z,67.58
2018-07-09T01:38:40.096Z,67.87
2018-07-09T01:39:40.045Z,67.68
2018-07-09T01:40:40.008Z,67.68
2018-07-09T01:41:39.949Z,67.87
2018-07-09T01:42:39.910Z,68.84
2018-07-09T01:43:39.872Z,69.51
2018-07-09T01:44:39.817Z,69.89
2018-07-09T01:45:39.777Z,69.89
2018-07-09T01:46:39.749Z,69.79
2018-07-09T01:47:39.694Z,69.79
2018-07-09T01:48:39.633Z,69.79
2018-07-09T01:49:39.609Z,69.51
2018-07-09T01:50:39.543Z,70.09
2018-07-09T01:51:39.515Z,69.70
2018-07-09T01:52:39.448Z,70.09
2018-07-09T01:53:39.414Z,70.28
2018-07-09T01:54:39.353Z,70.56
2018-07-09T01:55:39.342Z,70.47
2018-07-09T01:56:39.280Z,69.99
2018-07-09T01:57:39.220Z,70.56
2018-07-09T01:58:39.206Z,70.09
2018-07-09T01:59:39.135Z,69.38
2018-07-09T02:00:39.120Z,70.43
2018-07-09T02:01:39.065Z,70.18
2018-07-09T02:02:39.008Z,70.47
2018-07-09T02:03:38.947Z,70.09
2018-07-09T02:04:38.901Z,71.01
2018-07-09T02:05:38.857Z,71.11
2018-07-09T02:06:38.829Z,71.20
2018-07-09T02:07:38.770Z,71.40
2018-07-09T02:08:38.735Z,71.69
2018-07-09T02:09:38.675Z,72.07
2018-07-09T02:10:38.627Z,71.49
2018-07-09T02:11:38.584Z,71.30
2018-07-09T02:12:38.537Z,71.40
2018-07-09T02:13:38.505Z,71.49
2018-07-09T02:14:38.450Z,71.49
2018-07-09T02:15:38.420Z,71.30
2018-07-09T02:16:38.371Z,71.49
2018-07-09T02:17:38.326Z,71.20
2018-07-09T02:18:38.276Z,71.59
2018-07-09T02:19:38.231Z,70.92
2018-07-09T02:20:38.308Z,70.72
2018-07-09T02:21:38.133Z,71.01
2018-07-09T02:22:38.103Z,70.82
2018-07-09T02:23:38.041Z,70.82
2018-07-09T02:24:38.005Z,71.01
2018-07-09T02:25:37.986Z,71.59
2018-07-09T02:26:37.902Z,71.88
2018-07-09T02:27:37.877Z,72.17
2018-07-09T02:28:37.813Z,72.74
2018-07-09T02:29:37.801Z,72.26
2018-07-09T02:30:37.729Z,72.26
2018-07-09T02:31:37.677Z,72.45
2018-07-09T02:32:37.668Z,72.26
2018-07-09T02:33:37.615Z,72.17
2018-07-09T02:34:37.566Z,72.36
2018-07-09T02:35:37.530Z,72.17
2018-07-09T02:36:37.445Z,72.26
2018-07-09T02:37:37.453Z,71.88
2018-07-09T02:38:37.352Z,71.69
2018-07-09T02:39:37.312Z,71.40
2018-07-09T02:40:37.285Z,71.40
2018-07-09T02:41:37.229Z,72.07
2018-07-09T02:42:37.187Z,71.97
2018-07-09T02:43:37.140Z,71.88
2018-07-09T02:44:37.090Z,72.07
2018-07-09T02:45:37.038Z,72.74
2018-07-09T02:46:37.004Z,72.36
2018-07-09T02:47:36.977Z,71.97
2018-07-09T02:48:36.910Z,72.17
2018-07-09T02:49:36.877Z,72.07
2018-07-09T02:50:36.821Z,71.78
2018-07-09T02:51:36.765Z,72.17
2018-07-09T02:52:36.745Z,72.26
2018-07-09T02:53:36.701Z,72.65
2018-07-09T02:54:36.659Z,72.65
2018-07-09T02:55:36.582Z,72.74
2018-07-09T02:56:36.572Z,72.74
2018-07-09T02:57:36.504Z,72.65
2018-07-09T02:58:36.473Z,73.13
2018-07-09T02:59:36.394Z,72.65
2018-07-09T03:00:36.357Z,73.51
2018-07-09T03:01:36.317Z,73.71
2018-07-09T03:02:36.271Z,73.47
2018-07-09T03:03:36.217Z,73.61
2018-07-09T03:04:36.169Z,73.51
2018-07-09T03:05:36.120Z,74.09
2018-07-09T03:06:36.100Z,74.15
2018-07-09T03:07:36.056Z,74.19
2018-07-09T03:08:36.015Z,73.42
2018-07-09T03:09:35.938Z,73.51
2018-07-09T03:10:35.926Z,73.71
2018-07-09T03:11:35.852Z,73.42
2018-07-09T03:12:35.810Z,73.09
2018-07-09T03:13:35.757Z,74.19
2018-07-09T03:14:35.721Z,73.90
2018-07-09T03:15:35.665Z,74.44
2018-07-09T03:16:35.624Z,74.73
2018-07-09T03:17:35.580Z,74.38
2018-07-09T03:18:35.530Z,74.29
2018-07-09T03:19:35.512Z,74.57
2018-07-09T03:20:35.441Z,74.25
2018-07-09T03:21:35.391Z,74.34
2018-07-09T03:22:35.347Z,74.54
2018-07-09T03:23:35.330Z,74.57
2018-07-09T03:24:35.260Z,74.15
2018-07-09T03:25:35.213Z,75.05
2018-07-09T03:26:35.206Z,74.29
2018-07-09T03:27:35.147Z,74.67
2018-07-09T03:28:35.113Z,74.25
2018-07-09T03:29:35.029Z,74.25
2018-07-09T03:30:34.987Z,74.25
2018-07-09T03:31:34.950Z,74.29
2018-07-09T03:32:34.894Z,74.63
2018-07-09T03:33:34.848Z,74.19
2018-07-09T03:34:34.808Z,73.99
2018-07-09T03:35:34.781Z,73.61
2018-07-09T03:36:34.711Z,74.19
2018-07-09T03:37:34.674Z,74.38
2018-07-09T03:38:34.646Z,73.19
2018-07-09T03:39:34.569Z,73.57
2018-07-09T03:40:34.538Z,74.05
2018-07-09T03:41:34.503Z,74.15
2018-07-09T03:42:34.467Z,74.05
2018-07-09T03:43:34.423Z,73.96
2018-07-09T03:44:34.340Z,74.63
2018-07-09T03:45:34.312Z,74.54
2018-07-09T03:46:34.260Z,74.25
2018-07-09T03:47:34.210Z,74.15
2018-07-09T03:48:34.158Z,74.25
2018-07-09T03:49:34.112Z,74.63
2018-07-09T03:50:34.071Z,74.44
2018-07-09T03:51:34.027Z,75.02
2018-07-09T03:52:33.974Z,74.92
2018-07-09T03:53:33.963Z,75.11
2018-07-09T03:54:33.886Z,75.21
2018-07-09T03:55:33.867Z,75.79
2018-07-09T03:56:33.798Z,75.98
2018-07-09T03:57:33.770Z,75.69
2018-07-09T03:58:33.711Z,75.11
2018-07-09T03:59:33.687Z,75.40
2018-07-09T04:00:33.613Z,75.31
2018-07-09T04:01:33.571Z,74.92
2018-07-09T04:02:33.536Z,75.02
2018-07-09T04:03:33.500Z,74.82
2018-07-09T04:04:33.432Z,74.54
2018-07-09T04:05:33.377Z,74.29
2018-07-09T04:06:33.339Z,74.19
2018-07-09T04:07:33.304Z,74.44
2018-07-09T04:08:33.240Z,74.19
2018-07-09T04:09:33.198Z,74.44
2018-07-09T04:10:33.156Z,74.09
2018-07-09T04:11:33.130Z,73.42
2018-07-09T04:12:33.080Z,73.42
2018-07-09T04:13:33.031Z,73.99
2018-07-09T04:14:32.969Z,74.25
2018-07-09T04:15:32.945Z,74.48
2018-07-09T04:16:44.431Z,74.25
2018-07-09T04:17:44.464Z,74.54
2018-07-09T04:18:44.445Z,74.57
2018-07-09T04:19:44.399Z,74.34
2018-07-09T04:20:44.357Z,74.67
2018-07-09T04:21:44.283Z,74.38
2018-07-09T04:22:44.277Z,74.05
2018-07-09T04:23:44.209Z,73.57
2018-07-09T04:24:44.184Z,74.34
2018-07-09T04:25:44.105Z,74.34
2018-07-09T04:26:44.073Z,74.25
2018-07-09T04:27:44.012Z,74.54
2018-07-09T04:28:43.997Z,74.73
2018-07-09T04:29:43.927Z,73.96
2018-07-09T04:30:43.873Z,74.34
2018-07-09T04:31:43.837Z,74.25
2018-07-09T04:32:43.808Z,73.96
2018-07-09T04:33:43.746Z,73.96
2018-07-09T04:34:43.699Z,74.15
2018-07-09T04:35:43.645Z,74.25
2018-07-09T04:36:43.606Z,74.54
2018-07-09T04:37:43.628Z,74.63
2018-07-09T04:38:43.535Z,74.54
2018-07-09T04:39:43.469Z,74.54
2018-07-09T04:40:43.410Z,74.54
2018-07-09T04:41:43.370Z,75.02
2018-07-09T04:42:43.335Z,74.54
2018-07-09T04:43:43.314Z,75.21
2018-07-09T04:44:43.256Z,75.49
2018-07-09T04:45:43.184Z,75.11
2018-07-09T04:46:43.165Z,75.02
2018-07-09T04:47:43.122Z,74.73
2018-07-09T04:48:43.046Z,74.73
2018-07-09T04:49:43.009Z,75.02
2018-07-09T04:50:42.956Z,74.73
2018-07-09T04:51:42.914Z,74.54
2018-07-09T04:52:42.864Z,74.73
2018-07-09T04:53:42.843Z,75.02
2018-07-09T04:54:42.782Z,74.82
2018-07-09T04:55:42.733Z,75.02
2018-07-09T04:56:42.711Z,75.21
2018-07-09T04:57:42.650Z,75.40
2018-07-09T04:58:42.603Z,76.04
2018-07-09T04:59:42.543Z,75.84
2018-07-09T05:00:42.503Z,75.94
2018-07-09T05:01:42.454Z,75.75
2018-07-09T05:02:42.437Z,75.17
2018-07-09T05:03:42.377Z,75.21
2018-07-09T05:04:42.345Z,75.40
2018-07-09T05:05:42.366Z,75.40
2018-07-09T05:06:42.230Z,74.63
2018-07-09T05:07:42.189Z,74.54
2018-07-09T05:08:42.163Z,74.63
2018-07-09T05:09:42.105Z,74.63
2018-07-09T05:10:42.062Z,74.34
2018-07-09T05:11:42.008Z,74.73
2018-07-09T05:12:41.971Z,74.54
2018-07-09T05:13:41.933Z,75.11
2018-07-09T05:14:41.857Z,74.73
2018-07-09T05:15:41.822Z,74.63
2018-07-09T05:16:41.771Z,74.92
2018-07-09T05:17:41.738Z,75.31
2018-07-09T05:18:41.694Z,75.31
2018-07-09T05:19:41.631Z,75.69
2018-07-09T05:20:41.657Z,75.79
2018-07-09T05:21:41.552Z,75.49
2018-07-09T05:22:41.507Z,75.79
2018-07-09T05:23:41.488Z,75.79
2018-07-09T05:24:41.404Z,75.59
2018-07-09T05:25:41.368Z,75.49
2018-07-09T05:26:41.314Z,75.59
2018-07-09T05:27:41.282Z,75.69
2018-07-09T05:28:41.219Z,75.98
2018-07-09T05:29:41.187Z,76.46
2018-07-09T05:30:41.140Z,76.42
2018-07-09T05:31:41.122Z,77.00
2018-07-09T05:32:41.032Z,77.04
2018-07-09T05:33:41.008Z,77.04
2018-07-09T05:34:40.953Z,76.90
2018-07-09T05:35:40.901Z,76.17
2018-07-09T05:36:40.879Z,76.26
2018-07-09T05:37:40.814Z,76.32
2018-07-09T05:38:40.767Z,76.26
2018-07-09T05:39:40.744Z,76.61
2018-07-09T05:40:40.674Z,77.29
2018-07-09T05:41:40.623Z,77.48
2018-07-09T05:42:40.611Z,77.00
2018-07-09T05:43:40.560Z,77.09
2018-07-09T05:44:40.505Z,77.13
2018-07-09T05:45:40.440Z,77.29
2018-07-09T05:46:40.406Z,77.29
2018-07-09T05:47:40.355Z,77.29
2018-07-09T05:48:40.311Z,77.48
2018-07-09T05:49:40.272Z,77.29
2018-07-09T05:50:40.224Z,76.81
2018-07-09T05:51:40.191Z,77.09
2018-07-09T05:52:40.143Z,76.61
2018-07-09T05:53:40.080Z,76.32
2018-07-09T05:54:40.055Z,77.09
2018-07-09T05:55:39.989Z,76.61
2018-07-09T05:56:39.951Z,76.81
2018-07-09T05:57:39.907Z,77.09
2018-07-09T05:59:20.949Z,78.25
2018-07-09T06:00:20.841Z,78.06
2018-07-09T06:01:20.812Z,78.92
2018-07-09T06:02:20.753Z,79.02
2018-07-09T06:03:20.700Z,79.02
2018-07-09T06:04:20.683Z,79.50
2018-07-09T06:05:20.609Z,79.79
2018-07-09T06:06:20.564Z,80.46
2018-07-09T06:07:20.517Z,80.27
2018-07-09T06:08:20.502Z,80.46
2018-07-09T06:09:20.468Z,80.55
2018-07-09T06:10:20.392Z,80.55
2018-07-09T06:11:20.374Z,80.55
2018-07-09T06:12:20.292Z,80.27
2018-07-09T06:13:20.243Z,81.23
2018-07-09T06:14:20.203Z,81.38
2018-07-09T06:15:20.173Z,81.38
2018-07-09T06:16:20.104Z,82.24
2018-07-09T06:17:20.087Z,82.63
2018-07-09T06:18:20.044Z,83.01
2018-07-09T06:19:20.009Z,83.30
2018-07-09T06:20:19.932Z,83.01
2018-07-09T06:21:19.879Z,84.45
2018-07-09T06:22:19.829Z,84.45
2018-07-09T06:23:19.797Z,85.32
2018-07-09T06:24:19.733Z,85.66
2018-07-09T06:25:19.734Z,85.95
2018-07-09T06:26:19.685Z,86.43
2018-07-09T06:27:19.623Z,86.24
2018-07-09T06:28:19.581Z,86.81
2018-07-09T06:29:19.509Z,87.01
2018-07-09T06:30:19.463Z,87.96
2018-07-09T06:31:19.411Z,87.77
2018-07-09T06:32:19.369Z,88.16
2018-07-09T06:33:19.318Z,88.64
2018-07-09T06:34:19.287Z,88.25
2018-07-09T06:35:19.235Z,88.83
2018-07-09T06:36:19.194Z,89.40
2018-07-09T06:37:19.148Z,89.40
2018-07-09T06:38:19.087Z,90.08
2018-07-09T06:39:19.061Z,90.17
2018-07-09T06:40:19.020Z,90.27
2018-07-09T06:41:18.952Z,90.08
2018-07-09T06:42:18.932Z,90.66
2018-07-09T06:43:18.877Z,91.04
2018-07-09T06:44:18.828Z,90.94
2018-07-09T06:45:18.790Z,91.13
2018-07-09T06:46:18.745Z,91.13
2018-07-09T06:47:18.671Z,91.13
2018-07-09T06:48:18.704Z,91.90
2018-07-09T06:49:18.602Z,91.57
2018-07-09T06:50:18.561Z,91.09
2018-07-09T06:51:18.490Z,91.47
2018-07-09T06:52:18.459Z,91.76
2018-07-09T06:53:18.395Z,91.66
2018-07-09T06:54:18.352Z,91.76
2018-07-09T06:55:18.303Z,91.76
2018-07-09T06:56:18.263Z,91.38
2018-07-09T06:57:18.228Z,91.57
2018-07-09T06:58:18.200Z,91.47
2018-07-09T06:59:18.108Z,91.47
2018-07-09T07:00:18.090Z,91.47
2018-07-09T07:01:18.033Z,91.66
2018-07-09T07:02:18.044Z,91.28
2018-07-09T07:03:17.946Z,91.38
2018-07-09T07:04:17.892Z,92.24
2018-07-09T07:05:17.875Z,92.14
2018-07-09T07:06:17.791Z,91.86
2018-07-09T07:07:17.761Z,91.96
2018-07-09T07:08:17.736Z,91.86
2018-07-09T07:09:17.659Z,93.01
2018-07-09T07:10:17.629Z,92.72
2018-07-09T07:11:17.579Z,92.63
2018-07-09T07:12:17.515Z,92.33
2018-07-09T07:13:17.477Z,92.82
2018-07-09T07:14:17.480Z,92.82
2018-07-09T07:15:17.382Z,92.63
2018-07-09T07:16:17.325Z,93.10
2018-07-09T07:17:17.304Z,93.20
2018-07-09T07:18:17.262Z,93.30
2018-07-09T07:19:17.214Z,93.20
2018-07-09T07:20:17.153Z,93.49
2018-07-09T07:21:17.108Z,93.87
2018-07-09T07:22:17.067Z,93.10
2018-07-09T07:23:17.037Z,93.39
2018-07-09T07:24:16.948Z,93.87
2018-07-09T07:25:16.909Z,93.68
2018-07-09T07:26:16.897Z,93.87
2018-07-09T07:27:16.814Z,93.68
2018-07-09T07:28:16.767Z,94.64
2018-07-09T07:29:16.729Z,94.69
2018-07-09T07:30:16.686Z,94.93
2018-07-09T07:31:16.633Z,94.35
2018-07-09T07:32:16.591Z,95.03
2018-07-09T07:33:16.677Z,95.03
2018-07-09T07:34:16.497Z,95.31
2018-07-09T07:35:16.477Z,94.74
2018-07-09T07:36:16.432Z,95.12
2018-07-09T07:37:16.358Z,94.93
2018-07-09T07:38:16.327Z,95.21
2018-07-09T07:39:16.312Z,94.74
2018-07-09T07:40:16.239Z,94.26
2018-07-09T07:41:16.156Z,93.87
2018-07-09T07:42:16.137Z,93.77
2018-07-09T07:43:16.073Z,93.77
2018-07-09T07:44:16.031Z,93.49
2018-07-09T07:45:15.985Z,93.54
2018-07-09T07:46:15.940Z,93.54
2018-07-09T07:47:15.889Z,93.34
2018-07-09T07:48:15.872Z,93.82
2018-07-09T07:49:15.788Z,93.73
2018-07-09T07:50:15.868Z,93.25
2018-07-09T07:51:15.725Z,93.34
2018-07-09T07:52:15.670Z,93.68
2018-07-09T07:53:15.598Z,93.25
2018-07-09T07:54:15.578Z,93.82
2018-07-09T07:55:15.521Z,93.73
2018-07-09T07:56:15.474Z,93.82
2018-07-09T07:57:15.443Z,93.73
2018-07-09T07:58:15.369Z,93.25
2018-07-09T07:59:15.345Z,92.38
2018-07-09T08:00:15.288Z,92.77
2018-07-09T08:01:15.224Z,92.38
2018-07-09T08:02:15.186Z,92.77
2018-07-09T08:03:15.138Z,93.44
2018-07-09T08:04:15.096Z,93.63
2018-07-09T08:05:15.049Z,93.34
2018-07-09T08:06:15.016Z,94.11
2018-07-09T08:07:14.956Z,93.73
2018-07-09T08:08:14.908Z,93.44
2018-07-09T08:09:14.940Z,94.01
2018-07-09T08:10:14.841Z,94.01
2018-07-09T08:11:14.765Z,94.49
2018-07-09T08:13:00.534Z,94.69
2018-07-09T08:13:27.988Z,94.98
2018-07-09T08:14:14.638Z,94.78
2018-07-09T08:15:14.587Z,94.40
2018-07-09T08:16:14.563Z,95.21
2018-07-09T08:17:14.498Z,95.26
2018-07-09T08:18:14.455Z,95.26
2018-07-09T08:19:14.393Z,94.88
2018-07-09T08:20:14.356Z,95.98
2018-07-09T08:21:14.328Z,95.70
2018-07-09T08:22:14.285Z,95.98
2018-07-09T08:23:14.208Z,96.03
2018-07-09T08:24:14.169Z,95.94
2018-07-09T08:25:14.136Z,95.89
2018-07-09T08:26:14.076Z,95.60
2018-07-09T08:27:14.023Z,95.65
2018-07-09T08:28:13.989Z,95.55
2018-07-09T08:29:13.937Z,95.36
2018-07-09T08:30:13.885Z,95.07
2018-07-09T08:31:13.903Z,95.26
2018-07-09T08:32:13.792Z,95.65
2018-07-09T08:33:13.755Z,95.84
2018-07-09T08:34:13.707Z,95.75
2018-07-09T08:35:13.673Z,95.94
2018-07-09T08:36:13.620Z,95.94
2018-07-09T08:37:13.564Z,96.03
2018-07-09T08:38:13.523Z,95.75
2018-07-09T08:39:13.484Z,96.13
2018-07-09T08:40:13.447Z,96.03
2018-07-09T08:41:13.405Z,95.94
2018-07-09T08:42:13.348Z,95.84
2018-07-09T08:43:13.287Z,95.94
2018-07-09T08:44:13.266Z,96.03
2018-07-09T08:45:13.209Z,96.13
2018-07-09T08:46:13.143Z,96.03
2018-07-09T08:47:13.103Z,96.22
2018-07-09T08:48:13.084Z,96.03
2018-07-09T08:49:13.009Z,95.94
2018-07-09T08:50:12.983Z,96.22
2018-07-09T08:51:12.917Z,95.94
2018-07-09T08:52:12.872Z,96.32
2018-07-09T08:53:12.832Z,96.32
2018-07-09T08:54:12.803Z,95.84
2018-07-09T08:55:12.802Z,96.03
2018-07-09T08:56:12.687Z,96.03
2018-07-09T08:57:12.640Z,95.94
2018-07-09T08:58:12.594Z,95.75
2018-07-09T08:59:12.573Z,95.45
2018-07-09T09:00:12.496Z,95.45
2018-07-09T09:01:12.456Z,95.84
2018-07-09T09:02:12.437Z,95.94
2018-07-09T09:03:12.390Z,96.03
2018-07-09T09:04:12.333Z,96.61
2018-07-09T09:05:12.265Z,96.61
2018-07-09T09:06:12.224Z,96.03
2018-07-09T09:07:12.179Z,96.32
2018-07-09T09:08:12.131Z,96.13
2018-07-09T09:09:12.085Z,96.08
2018-07-09T09:10:12.163Z,95.75
2018-07-09T09:11:12.008Z,95.26
2018-07-09T09:12:11.957Z,94.69
2018-07-09T09:13:11.913Z,95.03
2018-07-09T09:14:11.864Z,94.64
2018-07-09T09:15:11.804Z,94.54
2018-07-09T09:16:11.759Z,94.45
2018-07-09T09:17:11.728Z,95.12
2018-07-09T09:18:11.682Z,94.88
2018-07-09T09:19:11.620Z,94.88
2018-07-09T09:20:11.573Z,94.78
2018-07-09T09:21:11.558Z,94.78
2018-07-09T09:22:11.518Z,95.12
2018-07-09T09:23:11.469Z,94.83
2018-07-09T09:24:11.390Z,95.03
2018-07-09T09:25:11.355Z,94.64
2018-07-09T09:26:11.326Z,94.98
2018-07-09T09:27:11.263Z,94.88
2018-07-09T09:28:11.222Z,94.78
2018-07-09T09:29:11.185Z,95.26
2018-07-09T09:30:11.145Z,95.45
2018-07-09T09:31:11.121Z,95.55
2018-07-09T09:32:11.022Z,95.84
2018-07-09T09:33:10.990Z,95.94
2018-07-09T09:34:10.944Z,96.03
2018-07-09T09:35:10.904Z,96.03
2018-07-09T09:36:10.842Z,95.45
2018-07-09T09:37:10.811Z,95.65
2018-07-09T09:38:10.750Z,95.07
2018-07-09T09:39:10.718Z,94.78
2018-07-09T09:40:10.706Z,94.69
2018-07-09T09:41:10.621Z,94.45
2018-07-09T09:42:10.580Z,94.73
2018-07-09T09:43:10.596Z,94.21
2018-07-09T09:44:10.491Z,94.49
2018-07-09T09:45:10.425Z,94.78
2018-07-09T09:46:10.375Z,95.07
2018-07-09T09:47:10.341Z,95.17
2018-07-09T09:48:10.285Z,95.26
2018-07-09T09:49:10.243Z,95.07
2018-07-09T09:50:10.227Z,95.17
2018-07-09T09:51:10.150Z,95.26
2018-07-09T09:52:10.126Z,95.17
2018-07-09T09:53:10.084Z,94.78
2018-07-09T09:54:10.038Z,94.78
2018-07-09T09:55:09.983Z,94.64
2018-07-09T09:56:09.916Z,94.78
2018-07-09T09:57:09.883Z,95.45
2018-07-09T09:58:09.846Z,95.50
2018-07-09T09:59:09.813Z,95.65
2018-07-09T10:00:09.751Z,95.94
2018-07-09T10:01:09.716Z,96.03
2018-07-09T10:02:09.655Z,96.03
2018-07-09T10:03:09.596Z,96.22
2018-07-09T10:04:09.548Z,96.03
2018-07-09T10:05:09.531Z,96.03
2018-07-09T10:06:09.491Z,95.94
2018-07-09T10:07:09.426Z,96.03
2018-07-09T10:08:09.377Z,95.94
2018-07-09T10:09:09.358Z,96.42
2018-07-09T10:10:09.286Z,96.80
2018-07-09T10:11:09.238Z,96.03
2018-07-09T10:12:09.214Z,96.22
2018-07-09T10:13:09.136Z,96.51
2018-07-09T10:14:09.108Z,96.13
2018-07-09T10:15:09.051Z,96.51
2018-07-09T10:16:09.013Z,96.89
2018-07-09T10:17:08.959Z,97.19
2018-07-09T10:18:08.931Z,97.09
2018-07-09T10:19:08.861Z,96.80
2018-07-09T10:20:08.828Z,96.89
2018-07-09T10:21:08.793Z,97.57
2018-07-09T10:22:08.727Z,97.57
2018-07-09T10:23:08.909Z,97.09
2018-07-09T10:24:08.637Z,96.80
2018-07-09T10:25:08.606Z,96.89
2018-07-09T10:26:08.525Z,96.42
2018-07-09T10:27:08.487Z,96.32
2018-07-09T10:28:08.451Z,96.22
2018-07-09T10:29:08.399Z,96.13
2018-07-09T10:30:08.353Z,96.51
2018-07-09T10:31:08.302Z,96.61
2018-07-09T10:32:08.275Z,96.42
2018-07-09T10:33:08.219Z,96.61
2018-07-09T10:34:08.174Z,96.42
2018-07-09T10:35:08.146Z,96.51
2018-07-09T10:36:08.112Z,96.17
2018-07-09T10:37:08.032Z,96.13
2018-07-09T10:38:08.009Z,96.61
2018-07-09T10:39:07.951Z,96.61
2018-07-09T10:40:07.900Z,97.09
2018-07-09T10:41:07.847Z,97.28
2018-07-09T10:42:07.794Z,97.28
2018-07-09T10:43:07.753Z,96.89
2018-07-09T10:44:07.708Z,97.47
2018-07-09T10:45:07.656Z,97.47
2018-07-09T10:46:07.629Z,97.66
2018-07-09T10:47:07.620Z,97.57
2018-07-09T10:48:07.544Z,97.47
2018-07-09T10:49:07.498Z,97.96
2018-07-09T10:50:07.446Z,98.24
2018-07-09T10:51:07.389Z,98.24
2018-07-09T10:52:07.360Z,98.34
2018-07-09T10:53:07.313Z,98.63
2018-07-09T10:54:07.279Z,97.86
2018-07-09T10:55:07.227Z,97.96
2018-07-09T10:56:07.156Z,98.05
2018-07-09T10:57:07.129Z,97.76
2018-07-09T10:58:07.058Z,97.76
2018-07-09T10:59:07.025Z,97.47
2018-07-09T11:00:06.982Z,97.66
2018-07-09T11:01:06.935Z,97.57
2018-07-09T11:02:06.899Z,97.38
2018-07-09T11:03:06.838Z,97.28
2018-07-09T11:04:06.793Z,97.57
2018-07-09T11:05:06.741Z,97.57
2018-07-09T11:06:06.701Z,97.86
2018-07-09T11:07:06.674Z,98.34
2018-07-09T11:08:06.615Z,98.05
2018-07-09T11:09:06.592Z,97.76
2018-07-09T11:10:06.549Z,97.66
2018-07-09T11:11:06.470Z,97.57
2018-07-09T11:12:06.419Z,97.38
2018-07-09T11:13:06.367Z,97.47
2018-07-09T11:14:06.338Z,97.09
2018-07-09T11:15:06.284Z,97.38
2018-07-09T11:16:06.244Z,97.09
2018-07-09T11:17:06.214Z,97.86
2018-07-09T11:18:06.156Z,97.19
2018-07-09T11:19:06.101Z,97.28
2018-07-09T11:20:06.061Z,97.57
2018-07-09T11:21:06.012Z,96.99
2018-07-09T11:22:05.962Z,97.47
2018-07-09T11:23:05.918Z,96.99
2018-07-09T11:24:05.872Z,97.47
2018-07-09T11:25:05.839Z,97.38
2018-07-09T11:26:05.783Z,96.80
2018-07-09T11:27:05.754Z,97.28
2018-07-09T11:28:05.673Z,97.09
2018-07-09T11:29:05.632Z,96.99
2018-07-09T11:30:05.612Z,97.38
2018-07-09T11:31:05.545Z,97.47
2018-07-09T11:32:05.518Z,96.80
2018-07-09T11:33:05.446Z,97.76
2018-07-09T11:34:05.426Z,97.19
2018-07-09T11:35:05.376Z,96.61
2018-07-09T11:36:05.339Z,96.89
2018-07-09T11:37:05.292Z,97.28
2018-07-09T11:38:05.235Z,97.28
2018-07-09T11:39:05.186Z,97.76
2018-07-09T11:40:05.136Z,96.80
2018-07-09T11:41:05.077Z,97.57
2018-07-09T11:42:05.090Z,97.19
2018-07-09T11:43:05.014Z,96.80
2018-07-09T11:44:04.959Z,96.61
2018-07-09T11:45:04.898Z,96.70
2018-07-09T11:46:04.874Z,96.22
2018-07-09T11:47:04.812Z,96.13
2018-07-09T11:48:04.785Z,96.03
2018-07-09T11:49:04.710Z,96.22
2018-07-09T11:50:04.665Z,96.03
2018-07-09T11:51:04.626Z,96.13
2018-07-09T11:52:04.621Z,96.03
2018-07-09T11:53:04.530Z,96.13
2018-07-09T11:54:04.479Z,95.94
2018-07-09T11:55:04.438Z,95.45
2018-07-09T11:56:04.441Z,95.07
2018-07-09T11:57:04.338Z,95.26
2018-07-09T11:58:04.309Z,95.70
2018-07-09T11:59:04.264Z,95.45
2018-07-09T12:00:04.221Z,94.49
2018-07-09T12:01:04.199Z,94.59
2018-07-09T12:02:04.128Z,94.31
2018-07-09T12:03:04.070Z,94.31
2018-07-09T12:04:04.020Z,94.69
2018-07-09T12:05:03.992Z,94.69
2018-07-09T12:06:03.929Z,94.69
2018-07-09T12:07:03.902Z,94.83
2018-07-09T12:08:03.840Z,93.96
2018-07-09T12:09:03.810Z,93.58
2018-07-09T12:10:03.746Z,93.68
2018-07-09T12:11:03.729Z,93.77
2018-07-09T12:12:03.664Z,94.06
2018-07-09T12:13:03.613Z,93.39
2018-07-09T12:14:03.588Z,94.06
2018-07-09T12:15:03.530Z,93.39
2018-07-09T12:16:03.500Z,94.06
2018-07-09T12:17:03.423Z,93.49
2018-07-09T12:18:03.415Z,93.39
2018-07-09T12:19:03.334Z,93.29
2018-07-09T12:20:03.306Z,93.01
2018-07-09T12:21:03.253Z,92.96
2018-07-09T12:22:03.202Z,92.67
2018-07-09T12:23:03.161Z,92.19
2018-07-09T12:24:03.135Z,91.61
2018-07-09T12:25:03.079Z,91.61
2018-07-09T12:26:03.014Z,91.13
2018-07-09T12:27:02.998Z,91.99
2018-07-09T12:28:02.943Z,91.22
2018-07-09T12:29:02.984Z,91.42
2018-07-09T12:30:02.839Z,90.84
2018-07-09T12:31:02.793Z,90.84
2018-07-09T12:32:02.747Z,90.26
2018-07-09T12:33:02.726Z,90.17
2018-07-09T12:34:02.664Z,90.26
2018-07-09T12:35:02.621Z,90.36
2018-07-09T12:36:02.607Z,90.07
2018-07-09T12:37:02.548Z,90.75
2018-07-09T12:38:02.513Z,90.07
2018-07-09T12:39:02.430Z,89.50
2018-07-09T12:40:02.385Z,89.50
2018-07-09T12:41:02.355Z,88.53
2018-07-09T12:42:02.305Z,88.44
2018-07-09T12:43:02.250Z,88.39
2018-07-09T12:44:02.212Z,88.48
2018-07-09T12:45:02.180Z,88.48
2018-07-09T12:46:02.112Z,88.29
2018-07-09T12:47:02.075Z,88.39
2018-07-09T12:48:02.049Z,88.67
2018-07-09T12:49:02.001Z,88.34
2018-07-09T12:50:01.955Z,88.73
2018-07-09T12:51:01.890Z,88.77
2018-07-09T12:52:01.850Z,88.57
2018-07-09T12:53:01.822Z,88.29